LGMK Airport Information

Runway Information
Runway 16 Length 6244 ft width 98 ft
Elevation 395 ft Threshold 0 ft Heading 160
Runway 34 Length 6244 ft Width 98 ft
Elevation 388 ft Threshold 0 ft Heading 340
Airport Frequencies
Type A/G Name RDO Frequency 563.7 MHZ
Type APP Name APP Frequency 118.75 MHZ
Type TWR Name TWR Frequency 118.75 MHZ
Airport Navaids
Type VOR-DME Name Mikonos Frequency 110000 KHZ
Type NDB Name Mikonos Frequency 401 KHZ
Airport Weather Information & NOTAM
ADDS - METARS form results

(2221 UTC 22 January 2020)
Data provider http://aviationweather.gov/metar/data/
 
Forecast for: LGMK (MIKONOS ISLAND , GR)
Text: TAF LGMK 222000Z 2221/2306 29012KT 9999 FEW018
Forecast period: 2100 UTC 22 January 2020 to 0600 UTC 23 January 2020
Forecast type: FROM: standard forecast or significant change
Winds: from the WNW (290 degrees) at 14 MPH (12 knots; 6.2 m/s)
Visibility: 6 or more miles 10+ km)
Ceiling: at least 12,000 feet AGL
Clouds: few clouds at 1800 feet AGL
Weather: no significant weather forecast for this period